Time;durP1;ratioP1;P1;durP2;ratioP2;P2;SDS_P1;SDS_P2;PMS_P1;PMS_P2;Temp;Humidity;BMP_temperature;BMP_pressure;BME280_temperature;BME280_humidity;BME280_pressure;Samples;Min_cycle;Max_cycle;Signal;HPM_P1;HPM_P2
2021/11/16 00:02:24;;;;;;;2.33;1.88;;;-1.30;87.50;;;;;;5076954;28;20523;-81
2021/11/16 00:04:50;;;;;;;2.13;1.50;;;-1.30;87.60;;;;;;5076339;28;20028;-83
2021/11/16 00:07:18;;;;;;;2.72;1.58;;;-1.30;87.80;;;;;;5076309;28;20095;-81
2021/11/16 00:09:45;;;;;;;3.53;2.20;;;-1.30;87.80;;;;;;5075917;28;20028;-83
2021/11/16 00:12:11;;;;;;;1.65;1.55;;;-1.40;88.00;;;;;;5076382;28;20389;-83
2021/11/16 00:14:37;;;;;;;3.72;2.00;;;-1.40;88.00;;;;;;5060578;28;20417;-84
2021/11/16 00:17:03;;;;;;;3.75;2.20;;;-1.40;88.20;;;;;;5056237;28;20017;-83
2021/11/16 00:19:29;;;;;;;4.55;2.00;;;-1.40;88.30;;;;;;5060080;28;20028;-82
2021/11/16 00:21:58;;;;;;;5.03;2.28;;;-1.40;88.40;;;;;;5057404;28;20096;-82
2021/11/16 00:24:44;;;;;;;3.42;2.22;;;-1.40;88.50;;;;;;5068035;28;20482;-80
2021/11/16 00:27:10;;;;;;;3.35;1.77;;;-1.40;88.60;;;;;;5076134;28;20021;-82
2021/11/16 00:29:37;;;;;;;2.92;2.13;;;-1.40;88.70;;;;;;5071373;28;20036;-81
2021/11/16 00:32:06;;;;;;;2.42;1.73;;;-1.50;88.80;;;;;;5076502;28;20099;-80
2021/11/16 00:34:32;;;;;;;5.00;2.05;;;-1.50;88.90;;;;;;5092063;28;20020;-81
2021/11/16 00:36:58;;;;;;;4.50;1.90;;;-1.50;89.10;;;;;;5077294;28;20025;-81
2021/11/16 00:39:24;;;;;;;2.67;1.80;;;-1.50;89.10;;;;;;5076037;28;20493;-81
2021/11/16 00:41:50;;;;;;;2.85;1.88;;;-1.50;89.10;;;;;;5075526;28;20056;-82
2021/11/16 00:44:17;;;;;;;2.83;1.77;;;-1.50;89.10;;;;;;5075311;28;20033;-82
2021/11/16 00:46:42;;;;;;;3.08;1.88;;;-1.50;89.10;;;;;;5075740;28;20464;-83
2021/11/16 00:49:08;;;;;;;3.78;1.63;;;-1.50;89.30;;;;;;5075054;28;20078;-83
2021/11/16 00:51:34;;;;;;;4.75;2.33;;;-1.50;89.40;;;;;;5075394;28;20028;-81
2021/11/16 00:54:00;;;;;;;3.85;2.22;;;-1.40;89.40;;;;;;5075316;28;20029;-83
2021/11/16 00:56:26;;;;;;;5.47;2.22;;;-1.30;89.30;;;;;;5075375;28;20095;-82
2021/11/16 00:58:52;;;;;;;3.53;1.98;;;-1.30;89.00;;;;;;5075140;28;20102;-83
2021/11/16 01:01:18;;;;;;;2.22;1.80;;;-1.20;88.70;;;;;;5075196;28;20031;-83
2021/11/16 01:03:44;;;;;;;4.65;2.00;;;-1.30;88.40;;;;;;5075140;28;20033;-83
2021/11/16 01:06:10;;;;;;;1.67;1.23;;;-1.30;88.20;;;;;;5075388;28;20027;-83
2021/11/16 01:08:36;;;;;;;2.20;1.52;;;-1.30;88.30;;;;;;5075026;28;20474;-83
2021/11/16 01:11:02;;;;;;;2.17;1.83;;;-1.30;88.30;;;;;;5074796;28;20024;-82
2021/11/16 01:13:28;;;;;;;1.80;1.58;;;-1.30;88.40;;;;;;5074672;28;20025;-81
2021/11/16 01:15:55;;;;;;;1.45;1.23;;;-1.20;88.50;;;;;;5075042;28;20075;-81
2021/11/16 01:18:23;;;;;;;2.03;1.83;;;-1.20;88.30;;;;;;5075345;28;20027;-82
2021/11/16 01:20:50;;;;;;;1.88;1.67;;;-1.20;88.10;;;;;;5074699;28;20028;-84
2021/11/16 01:23:18;;;;;;;3.33;1.48;;;-1.10;88.10;;;;;;5073233;28;20032;-82
2021/11/16 01:25:45;;;;;;;1.75;1.50;;;-1.10;88.00;;;;;;5074494;28;20021;-81
2021/11/16 01:28:13;;;;;;;3.90;1.90;;;-1.20;87.80;;;;;;5074552;28;20025;-80
2021/11/16 01:30:44;;;;;;;3.15;1.83;;;-1.10;87.90;;;;;;5057986;28;20087;-82
2021/11/16 01:33:15;;;;;;;2.20;1.52;;;-1.10;87.90;;;;;;5054833;28;20053;-82
2021/11/16 01:35:43;;;;;;;1.92;1.60;;;-1.10;87.80;;;;;;5054725;28;20071;-83
2021/11/16 01:38:10;;;;;;;;;;;-1.10;87.70;;;;;;5055130;28;20040;-81
2021/11/16 01:40:37;;;;;;;2.25;1.45;;;-1.10;87.60;;;;;;5054368;28;19931;-82
2021/11/16 01:43:07;;;;;;;3.03;1.67;;;-1.10;87.60;;;;;;5054310;28;20052;-83
2021/11/16 01:45:32;;;;;;;2.35;1.88;;;-1.10;87.60;;;;;;5054871;28;20029;-83
2021/11/16 01:47:58;;;;;;;1.90;1.70;;;-1.00;87.60;;;;;;5054422;28;20493;-83
2021/11/16 01:50:26;;;;;;;2.55;1.77;;;-1.00;87.60;;;;;;5054156;28;20021;-80
2021/11/16 01:52:53;;;;;;;4.22;2.03;;;-1.00;87.60;;;;;;5054310;28;20048;-83
2021/11/16 01:55:21;;;;;;;1.92;1.45;;;-1.00;87.60;;;;;;5054198;28;20021;-80
2021/11/16 01:57:48;;;;;;;3.90;2.20;;;-0.90;87.60;;;;;;5055489;28;20123;-80
2021/11/16 02:00:26;;;;;;;3.17;2.00;;;-0.80;88.20;;;;;;5064579;28;20028;-80
2021/11/16 02:02:52;;;;;;;;;;;-0.80;87.50;;;;;;5070367;28;20045;-80
2021/11/16 02:05:19;;;;;;;2.13;1.88;;;-0.80;87.40;;;;;;5053638;28;20282;-78
2021/11/16 02:07:47;;;;;;;5.57;1.77;;;-0.70;87.10;;;;;;5059389;28;20029;-82
2021/11/16 02:10:14;;;;;;;5.65;1.50;;;-0.70;87.10;;;;;;5061582;28;20158;-79
2021/11/16 02:12:40;;;;;;;3.92;2.30;;;-0.70;87.10;;;;;;5073663;28;20081;-79
2021/11/16 02:15:09;;;;;;;2.45;2.25;;;-0.70;87.00;;;;;;5078697;28;20024;-80
2021/11/16 02:17:37;;;;;;;2.33;1.60;;;-0.70;87.00;;;;;;5093211;28;20020;-81
2021/11/16 02:20:04;;;;;;;2.53;1.80;;;-0.60;86.90;;;;;;5074666;28;20024;-81
2021/11/16 02:22:31;;;;;;;3.72;1.80;;;-0.60;86.90;;;;;;5073895;28;20029;-79
2021/11/16 02:24:57;;;;;;;3.80;2.03;;;-0.60;86.70;;;;;;5073960;28;20031;-80
2021/11/16 02:27:23;;;;;;;3.13;1.92;;;-0.50;86.60;;;;;;5073710;28;20012;-82
2021/11/16 02:29:49;;;;;;;2.28;1.65;;;-0.50;86.60;;;;;;5074010;28;20053;-83
2021/11/16 02:32:16;;;;;;;2.83;2.22;;;-0.40;86.60;;;;;;5074430;28;20381;-85
2021/11/16 02:34:42;;;;;;;1.92;1.40;;;-0.50;86.40;;;;;;5060548;28;20497;-82
2021/11/16 02:37:08;;;;;;;2.67;1.83;;;-0.50;86.50;;;;;;5063921;28;20071;-80
2021/11/16 02:39:34;;;;;;;2.50;1.83;;;-0.50;86.50;;;;;;5059190;28;20036;-82
2021/11/16 02:42:01;;;;;;;1.92;1.83;;;-0.50;86.60;;;;;;5057089;28;20481;-83
2021/11/16 02:44:27;;;;;;;;;;;-0.60;86.40;;;;;;5057582;28;20029;-82
2021/11/16 02:46:53;;;;;;;2.90;2.00;;;-0.70;86.50;;;;;;5055084;28;19905;-82
2021/11/16 02:49:20;;;;;;;3.35;1.73;;;-0.70;86.70;;;;;;5054376;28;20043;-82
2021/11/16 02:51:46;;;;;;;2.13;1.42;;;-0.70;86.80;;;;;;5052879;28;20501;-82
2021/11/16 02:54:15;;;;;;;3.13;1.70;;;-0.70;87.00;;;;;;5053879;28;20033;-80
2021/11/16 02:56:43;;;;;;;1.70;1.27;;;-0.70;87.10;;;;;;5066902;28;20024;-81
2021/11/16 02:59:10;;;;;;;1.83;1.35;;;-0.70;86.80;;;;;;5072740;28;20490;-82
2021/11/16 03:01:37;;;;;;;2.85;1.77;;;-0.70;86.60;;;;;;5071905;28;20039;-83
2021/11/16 03:04:03;;;;;;;3.58;1.80;;;-0.60;86.70;;;;;;5073510;28;20029;-83
2021/11/16 03:06:29;;;;;;;1.70;1.50;;;-0.70;86.60;;;;;;5073370;28;20431;-86
2021/11/16 03:08:56;;;;;;;3.03;1.40;;;-0.70;86.60;;;;;;5073251;28;20025;-85
2021/11/16 03:11:22;;;;;;;3.60;1.70;;;-0.60;86.70;;;;;;5074633;28;20021;-83
2021/11/16 03:13:48;;;;;;;1.80;1.40;;;-0.60;86.50;;;;;;5077757;28;20036;-83
2021/11/16 03:16:19;;;;;;;2.53;1.40;;;-0.60;86.40;;;;;;5076291;28;20474;-82
2021/11/16 03:18:49;;;;;;;1.58;1.45;;;-0.60;86.40;;;;;;5067622;28;20025;-86
2021/11/16 03:21:17;;;;;;;4.45;1.60;;;-0.50;86.40;;;;;;5057538;28;20036;-83
2021/11/16 03:23:44;;;;;;;2.70;1.60;;;-0.50;86.20;;;;;;5075190;28;20032;-75
2021/11/16 03:26:12;;;;;;;3.40;1.83;;;-0.50;86.10;;;;;;5076662;28;20067;-81
2021/11/16 03:28:44;;;;;;;3.97;2.15;;;-0.40;86.20;;;;;;5076464;28;20031;-79
2021/11/16 03:31:27;;;;;;;2.22;1.50;;;-0.40;86.00;;;;;;5068255;28;20017;-79
2021/11/16 03:33:54;;;;;;;3.65;1.15;;;-0.40;85.70;;;;;;5076467;28;20024;-79
2021/11/16 03:36:21;;;;;;;2.15;1.95;;;-0.40;85.40;;;;;;5076527;28;20024;-77
2021/11/16 03:38:49;;;;;;;2.63;1.60;;;-0.40;85.60;;;;;;5076285;28;20096;-80
2021/11/16 03:41:16;;;;;;;2.75;1.73;;;-0.40;85.50;;;;;;5075169;28;20020;-85
2021/11/16 03:43:43;;;;;;;1.88;1.15;;;-0.50;85.40;;;;;;5069242;28;20071;-84
2021/11/16 03:46:09;;;;;;;2.20;1.33;;;-0.50;85.50;;;;;;5076518;28;20028;-85
2021/11/16 03:48:35;;;;;;;2.75;1.60;;;-0.50;85.60;;;;;;5077680;28;20465;-84
2021/11/16 03:51:01;;;;;;;4.15;2.28;;;-0.50;85.50;;;;;;5081970;28;20017;-88
2021/11/16 03:53:29;;;;;;;5.65;1.52;;;-0.50;85.50;;;;;;5085694;28;20076;-86
2021/11/16 03:55:56;;;;;;;4.07;1.90;;;-0.50;85.10;;;;;;5093388;28;20017;-83
2021/11/16 03:58:25;;;;;;;3.03;1.35;;;-0.50;85.70;;;;;;5079685;28;20078;-82
2021/11/16 04:01:00;;;;;;;2.80;1.63;;;-0.40;85.70;;;;;;5072916;28;20020;-82
2021/11/16 04:03:30;;;;;;;2.78;1.80;;;-0.50;85.50;;;;;;5073140;28;20059;-83
2021/11/16 04:05:56;;;;;;;1.67;1.20;;;-0.50;85.80;;;;;;5092900;28;20017;-80
2021/11/16 04:08:22;;;;;;;7.55;1.85;;;-0.50;85.80;;;;;;5072505;28;20031;-82
2021/11/16 04:10:50;;;;;;;5.80;2.60;;;-0.50;85.90;;;;;;5076778;28;20025;-82
2021/11/16 04:13:16;;;;;;;3.70;1.58;;;-0.50;86.00;;;;;;5076405;28;20055;-80
2021/11/16 04:15:42;;;;;;;11.52;4.53;;;-0.40;86.00;;;;;;5076077;28;20028;-88
2021/11/16 04:18:08;;;;;;;9.30;4.57;;;-0.40;86.10;;;;;;5060124;28;20029;-89
2021/11/16 04:20:38;;;;;;;4.22;1.83;;;-0.50;86.10;;;;;;5056638;28;20025;-85
2021/11/16 04:23:05;;;;;;;4.05;1.70;;;-0.50;86.10;;;;;;5055370;28;20059;-85
2021/11/16 04:25:33;;;;;;;1.58;1.30;;;-0.50;86.20;;;;;;5055585;28;20440;-84
2021/11/16 04:28:03;;;;;;;4.20;1.40;;;-0.50;86.20;;;;;;5056470;28;20017;-84
2021/11/16 04:30:29;;;;;;;6.95;1.58;;;-0.50;86.20;;;;;;5056377;28;20036;-84
2021/11/16 04:32:56;;;;;;;3.80;1.75;;;-0.50;86.30;;;;;;5055877;28;20032;-84
2021/11/16 04:35:23;;;;;;;5.50;1.95;;;-0.50;86.30;;;;;;5055466;28;20025;-85
2021/11/16 04:37:51;;;;;;;2.20;1.70;;;-0.50;86.40;;;;;;5055967;28;20119;-84
2021/11/16 04:40:22;;;;;;;2.95;1.88;;;-0.60;86.30;;;;;;5055351;28;20025;-83
2021/11/16 04:42:48;;;;;;;3.65;1.45;;;-0.70;86.40;;;;;;5055138;28;20053;-84
2021/11/16 04:45:20;;;;;;;4.32;2.00;;;-0.70;86.60;;;;;;5055600;28;20036;-85
2021/11/16 04:47:52;;;;;;;2.10;1.48;;;-0.90;86.80;;;;;;5062543;28;20381;-83
2021/11/16 04:50:35;;;;;;;2.25;1.73;;;-1.00;87.10;;;;;;5066902;28;20051;-84
2021/11/16 04:55:54;;;;;;;4.97;1.52;;;-1.10;88.10;;;;;;5060848;28;20098;-82
2021/11/16 05:03:54;;;;;;;2.63;1.35;;;-1.40;88.80;;;;;;5057379;28;20076;-85
2021/11/16 05:06:20;;;;;;;3.60;1.70;;;-1.40;89.10;;;;;;5055762;28;20422;-84
2021/11/16 05:08:47;;;;;;;6.28;1.92;;;-1.40;89.30;;;;;;5076715;28;20028;-85
2021/11/16 05:11:15;;;;;;;5.45;1.60;;;-1.50;89.60;;;;;;5075167;28;20016;-85
2021/11/16 05:13:43;;;;;;;;;;;-1.50;89.70;;;;;;5076004;28;20032;-84
2021/11/16 05:16:11;;;;;;;3.08;1.35;;;-1.50;89.70;;;;;;5074997;28;20086;-84
2021/11/16 05:18:38;;;;;;;3.60;1.40;;;-1.60;90.10;;;;;;5074656;28;20021;-83
2021/11/16 05:21:04;;;;;;;1.92;1.48;;;-1.60;90.20;;;;;;5074926;28;20024;-85
2021/11/16 05:23:35;;;;;;;4.97;1.50;;;-1.60;90.30;;;;;;5075025;28;20043;-83
2021/11/16 05:26:02;;;;;;;1.75;1.27;;;-1.60;90.40;;;;;;5075914;28;20020;-84
2021/11/16 05:28:28;;;;;;;1.27;1.17;;;-1.60;90.50;;;;;;5075995;28;20028;-85
2021/11/16 05:30:54;;;;;;;3.55;1.25;;;-1.60;90.50;;;;;;5074833;28;20055;-84
2021/11/16 05:33:22;;;;;;;5.40;1.45;;;-1.60;90.60;;;;;;5074760;28;20028;-83
2021/11/16 05:35:48;;;;;;;5.05;1.33;;;-1.70;90.60;;;;;;5074323;28;20416;-85
2021/11/16 05:38:32;;;;;;;4.75;1.80;;;-1.60;90.60;;;;;;5074289;28;20101;-84
2021/11/16 05:40:58;;;;;;;8.40;2.00;;;-1.60;90.70;;;;;;5074358;28;20039;-84
2021/11/16 05:43:26;;;;;;;2.95;1.58;;;-1.60;90.70;;;;;;5074326;28;20048;-85
2021/11/16 05:45:52;;;;;;;3.80;1.30;;;-1.60;90.70;;;;;;5074516;28;20027;-85
2021/11/16 05:48:21;;;;;;;2.75;1.60;;;-1.70;90.70;;;;;;5074192;28;20024;-86
2021/11/16 05:50:47;;;;;;;3.28;1.52;;;-1.70;90.70;;;;;;5072815;28;20552;-85
2021/11/16 05:53:15;;;;;;;2.92;1.65;;;-1.60;90.80;;;;;;5075316;28;20032;-84
2021/11/16 05:55:43;;;;;;;6.13;1.85;;;-1.70;90.80;;;;;;5086018;28;20021;-86
2021/11/16 05:58:09;;;;;;;2.85;1.50;;;-1.60;90.90;;;;;;5091707;28;20004;-84
2021/11/16 06:00:35;;;;;;;4.93;1.80;;;-1.60;90.90;;;;;;5084611;28;20468;-85
2021/11/16 06:03:01;;;;;;;4.25;1.48;;;-1.70;90.90;;;;;;5077692;28;20033;-83
2021/11/16 06:05:27;;;;;;;4.50;2.10;;;-1.60;91.00;;;;;;5072873;28;20017;-85
2021/11/16 06:07:53;;;;;;;3.65;2.03;;;-1.60;91.00;;;;;;5054426;28;20017;-84
2021/11/16 06:10:19;;;;;;;6.93;2.05;;;-1.60;91.00;;;;;;5060965;28;20021;-85
2021/11/16 06:12:44;;;;;;;5.18;1.95;;;-1.60;91.00;;;;;;5075081;28;20032;-84
2021/11/16 06:15:10;;;;;;;3.42;2.13;;;-1.60;91.00;;;;;;5075133;28;20533;-84
2021/11/16 06:17:45;;;;;;;3.08;2.17;;;-1.60;91.00;;;;;;5075153;28;20025;-84
2021/11/16 06:20:13;;;;;;;3.05;2.45;;;-1.60;91.00;;;;;;5074560;28;20025;-83
2021/11/16 06:22:40;;;;;;;4.60;2.72;;;-1.60;91.00;;;;;;5074071;28;20408;-86
2021/11/16 06:25:07;;;;;;;7.90;2.70;;;-1.50;91.00;;;;;;5073920;28;20385;-84
2021/11/16 06:27:32;;;;;;;4.97;3.20;;;-1.60;90.90;;;;;;5073844;28;20087;-85
2021/11/16 06:29:58;;;;;;;4.57;2.45;;;-1.50;91.00;;;;;;5073919;28;20032;-84
2021/11/16 06:32:24;;;;;;;6.38;2.83;;;-1.50;91.00;;;;;;5073924;28;20481;-85
2021/11/16 06:34:52;;;;;;;3.33;1.83;;;-1.50;91.00;;;;;;5073146;28;20020;-85
2021/11/16 06:37:18;;;;;;;7.03;2.85;;;-1.40;91.00;;;;;;5074817;28;20043;-84
2021/11/16 06:39:44;;;;;;;4.47;2.20;;;-1.50;90.90;;;;;;5074086;28;20384;-83
2021/11/16 06:42:13;;;;;;;6.78;3.08;;;-1.40;90.90;;;;;;5073480;28;20123;-85
2021/11/16 06:44:39;;;;;;;3.72;2.25;;;-1.40;90.90;;;;;;5074537;28;20486;-84
2021/11/16 06:47:05;;;;;;;8.65;2.55;;;-1.40;90.90;;;;;;5071913;28;20024;-84
2021/11/16 06:49:32;;;;;;;4.20;2.22;;;-1.40;90.90;;;;;;5073675;28;20190;-83
2021/11/16 06:51:59;;;;;;;4.03;1.80;;;-1.30;90.90;;;;;;5073851;28;20056;-84
2021/11/16 06:54:26;;;;;;;7.87;3.77;;;-1.30;90.90;;;;;;5075315;28;20055;-84
2021/11/16 06:56:52;;;;;;;;;;;-1.30;90.90;;;;;;5074281;28;20469;-85
2021/11/16 06:59:24;;;;;;;5.85;2.30;;;-1.20;90.90;;;;;;5074212;28;20266;-84
2021/11/16 07:01:51;;;;;;;10.05;3.40;;;-1.20;90.80;;;;;;5081738;28;20024;-82
2021/11/16 07:04:17;;;;;;;8.80;3.58;;;-1.20;90.80;;;;;;5082150;28;20033;-84
2021/11/16 07:06:49;;;;;;;5.28;2.90;;;-1.20;90.80;;;;;;5074336;28;20078;-82
2021/11/16 07:09:17;;;;;;;6.90;3.75;;;-1.10;90.80;;;;;;5073815;28;20025;-84
2021/11/16 07:11:50;;;;;;;4.82;3.17;;;-1.10;90.70;;;;;;5073134;28;20098;-84
2021/11/16 07:14:19;;;;;;;6.95;3.15;;;-1.10;90.70;;;;;;5073133;28;20033;-84
2021/11/16 07:16:50;;;;;;;6.32;3.83;;;-1.00;90.60;;;;;;5072909;28;20028;-85
2021/11/16 07:19:17;;;;;;;8.68;4.10;;;-1.00;90.80;;;;;;5072990;28;20032;-85
2021/11/16 07:21:49;;;;;;;5.80;2.97;;;-0.90;90.50;;;;;;5073218;28;20098;-84
2021/11/16 07:24:22;;;;;;;6.18;4.00;;;-0.80;90.50;;;;;;5072792;28;20112;-84
2021/11/16 07:27:08;;;;;;;6.07;4.25;;;-0.70;90.40;;;;;;5072612;28;20029;-83
2021/11/16 07:29:37;;;;;;;5.60;4.55;;;-0.60;90.30;;;;;;5073252;28;20035;-81
2021/11/16 07:32:05;;;;;;;9.13;3.65;;;-0.60;90.10;;;;;;5077233;28;20096;-84
2021/11/16 07:34:33;;;;;;;8.20;4.05;;;-0.60;90.00;;;;;;5071651;28;20078;-85
2021/11/16 07:37:01;;;;;;;5.28;3.40;;;-0.60;90.00;;;;;;5072650;28;20044;-83
2021/11/16 07:39:29;;;;;;;8.90;3.45;;;-0.50;90.00;;;;;;5075327;28;20343;-83
2021/11/16 07:42:04;;;;;;;4.88;2.85;;;-0.50;89.90;;;;;;5072663;28;20445;-83
2021/11/16 07:44:35;;;;;;;4.68;3.33;;;-0.40;89.80;;;;;;5073927;28;20037;-84
2021/11/16 07:47:02;;;;;;;7.03;3.42;;;-0.40;89.40;;;;;;5078323;28;20044;-82
2021/11/16 07:49:28;;;;;;;9.57;3.72;;;-0.30;88.70;;;;;;5082734;28;20114;-83
2021/11/16 07:51:55;;;;;;;6.63;2.88;;;-0.20;89.00;;;;;;5094230;28;20040;-82
2021/11/16 07:54:28;;;;;;;6.55;3.00;;;0.20;89.90;;;;;;5091942;28;20387;-82
2021/11/16 07:57:06;;;;;;;6.45;2.88;;;0.90;88.60;;;;;;5080110;28;20028;-83
2021/11/16 07:59:33;;;;;;;7.53;3.50;;;1.40;85.80;;;;;;5076465;28;20024;-83
2021/11/16 08:02:19;;;;;;;6.55;3.05;;;1.70;84.50;;;;;;5076036;28;20024;-84
2021/11/16 08:04:59;;;;;;;6.78;3.10;;;2.20;83.50;;;;;;5075665;28;20108;-83
2021/11/16 08:07:34;;;;;;;3.67;2.53;;;2.40;80.10;;;;;;5075999;28;20544;-83
2021/11/16 08:10:05;;;;;;;7.57;3.47;;;2.80;79.90;;;;;;5075549;28;20125;-83
2021/11/16 08:12:35;;;;;;;4.85;2.95;;;3.40;77.60;;;;;;5075926;28;20013;-83
2021/11/16 08:15:10;;;;;;;6.95;3.80;;;4.00;76.90;;;;;;5074250;28;20028;-84
2021/11/16 08:17:37;;;;;;;6.63;2.70;;;4.70;75.20;;;;;;5075797;28;20103;-83
2021/11/16 08:20:09;;;;;;;5.10;2.88;;;4.70;70.20;;;;;;5075534;28;20056;-83
2021/11/16 08:22:35;;;;;;;8.23;3.17;;;4.70;71.20;;;;;;5075936;28;20108;-84
2021/11/16 08:25:03;;;;;;;4.28;2.10;;;5.10;70.40;;;;;;5075409;28;20103;-83
2021/11/16 08:27:35;;;;;;;4.63;2.83;;;5.30;68.60;;;;;;5075689;28;20024;-86
2021/11/16 08:30:14;;;;;;;4.65;2.28;;;5.10;67.50;;;;;;5075889;28;20028;-83
2021/11/16 08:32:42;;;;;;;4.63;2.83;;;4.70;67.40;;;;;;5075415;28;20025;-84
2021/11/16 08:35:13;;;;;;;4.22;2.50;;;4.60;68.30;;;;;;5075557;28;20029;-85
2021/11/16 08:37:41;;;;;;;7.07;3.15;;;4.20;67.70;;;;;;5074289;28;20028;-84
2021/11/16 08:40:13;;;;;;;15.10;6.25;;;3.80;68.80;;;;;;5074734;28;20044;-83
2021/11/16 08:42:51;;;;;;;9.15;5.10;;;3.80;70.20;;;;;;5078812;28;20047;-84
2021/11/16 08:45:21;;;;;;;6.93;3.08;;;3.90;69.30;;;;;;5077274;28;20028;-82
2021/11/16 08:48:09;;;;;;;8.07;3.40;;;3.90;69.20;;;;;;5075815;28;20358;-83
2021/11/16 08:50:55;;;;;;;;;;;4.00;69.00;;;;;;5074480;28;20082;-83
2021/11/16 08:53:26;;;;;;;6.32;2.75;;;4.20;70.40;;;;;;5074533;28;19905;-84
2021/11/16 08:55:52;;;;;;;5.10;2.90;;;4.50;69.40;;;;;;5075284;28;20017;-85
2021/11/16 08:58:19;;;;;;;4.40;3.40;;;5.00;68.70;;;;;;5075066;28;20474;-84
2021/11/16 09:00:49;;;;;;;7.18;3.58;;;5.10;66.40;;;;;;5074740;28;20039;-83
2021/11/16 09:03:20;;;;;;;15.30;7.05;;;4.80;66.60;;;;;;5074643;28;20085;-85
2021/11/16 09:05:49;;;;;;;5.53;3.92;;;5.00;66.80;;;;;;5075313;28;20389;-84
2021/11/16 09:08:25;;;;;;;7.88;3.10;;;5.40;66.20;;;;;;5074404;28;20485;-84
2021/11/16 09:11:14;;;;;;;6.40;3.08;;;5.50;65.80;;;;;;5074658;28;20154;-84
2021/11/16 09:13:42;;;;;;;5.60;3.80;;;5.50;64.60;;;;;;5078861;28;20047;-83
2021/11/16 09:16:10;;;;;;;7.82;3.83;;;5.40;64.80;;;;;;5081293;28;20052;-84
2021/11/16 09:18:37;;;;;;;;;;;5.40;64.70;;;;;;5076248;28;20031;-83
2021/11/16 09:21:08;;;;;;;12.95;4.45;;;5.50;66.00;;;;;;5073684;28;19927;-84
2021/11/16 09:23:39;;;;;;;10.10;4.07;;;5.50;64.60;;;;;;5074479;28;20044;-83
2021/11/16 09:26:19;;;;;;;11.15;3.65;;;5.30;64.10;;;;;;5073328;28;20021;-84
2021/11/16 09:28:50;;;;;;;6.75;4.88;;;4.60;64.80;;;;;;5074409;28;20610;-83
2021/11/16 09:31:28;;;;;;;14.90;4.85;;;4.10;65.80;;;;;;5075046;28;20024;-84
2021/11/16 09:33:59;;;;;;;8.75;4.47;;;3.60;67.10;;;;;;5074350;28;20068;-84
2021/11/16 09:36:37;;;;;;;8.63;3.80;;;3.20;68.50;;;;;;5074451;28;20031;-83
2021/11/16 09:39:08;;;;;;;;;;;2.80;69.40;;;;;;5075773;28;20482;-83
2021/11/16 09:41:48;;;;;;;10.82;4.20;;;2.60;69.90;;;;;;5076480;28;19943;-83
2021/11/16 09:44:20;;;;;;;5.53;5.03;;;2.70;71.70;;;;;;5074902;28;20044;-84
2021/11/16 09:47:00;;;;;;;7.72;3.78;;;3.30;71.70;;;;;;5079664;28;20047;-84
2021/11/16 09:49:32;;;;;;;8.32;4.60;;;4.10;70.30;;;;;;5086093;28;20050;-85
2021/11/16 09:52:11;;;;;;;7.28;3.95;;;4.80;68.00;;;;;;5075407;28;20036;-85
2021/11/16 09:54:56;;;;;;;9.27;4.60;;;5.50;66.30;;;;;;5074641;28;20021;-83
2021/11/16 09:57:26;;;;;;;8.10;4.05;;;6.10;64.40;;;;;;5072726;28;20370;-84
2021/11/16 10:00:00;;;;;;;8.63;4.35;;;6.40;62.50;;;;;;5073833;28;20382;-83
2021/11/16 10:02:29;;;;;;;15.63;4.32;;;7.10;61.50;;;;;;5073781;28;20126;-84
2021/11/16 10:05:01;;;;;;;6.00;3.65;;;7.90;59.20;;;;;;5074949;28;20028;-83
2021/11/16 10:07:28;;;;;;;8.15;3.72;;;8.00;57.90;;;;;;5073717;28;20027;-84
2021/11/16 10:09:54;;;;;;;8.73;3.75;;;7.70;57.30;;;;;;5074396;28;20377;-83
2021/11/16 10:12:24;;;;;;;5.50;3.75;;;6.60;58.10;;;;;;5076447;28;20048;-84
2021/11/16 10:14:54;;;;;;;5.57;3.30;;;5.90;59.30;;;;;;5072714;28;20020;-84
2021/11/16 10:17:20;;;;;;;5.65;3.10;;;5.20;60.30;;;;;;5074087;28;20422;-81
2021/11/16 10:19:46;;;;;;;7.05;4.28;;;4.30;62.50;;;;;;5080865;28;20029;-82
2021/11/16 10:22:14;;;;;;;7.80;4.13;;;3.70;64.40;;;;;;5081827;28;20056;-83
2021/11/16 10:24:41;;;;;;;6.65;3.42;;;3.40;65.80;;;;;;5074796;28;20064;-82
2021/11/16 10:27:25;;;;;;;4.25;3.50;;;3.20;66.50;;;;;;5073719;28;20438;-83
2021/11/16 10:30:21;;;;;;;6.22;3.50;;;3.00;67.30;;;;;;5073584;28;20100;-83
2021/11/16 10:33:25;;;;;;;7.80;4.65;;;2.70;68.50;;;;;;5073284;28;20048;-85
2021/11/16 10:36:03;;;;;;;8.60;4.68;;;2.60;69.20;;;;;;5072422;28;20017;-83
2021/11/16 10:38:35;;;;;;;5.85;3.83;;;2.50;69.90;;;;;;5073549;28;20021;-83
2021/11/16 10:41:08;;;;;;;12.07;4.90;;;2.40;70.00;;;;;;5074062;28;20084;-84
2021/11/16 10:43:49;;;;;;;8.32;3.03;;;2.30;70.50;;;;;;5077060;28;20451;-82
2021/11/16 10:46:20;;;;;;;9.27;3.92;;;2.30;70.80;;;;;;5074037;28;20021;-84
2021/11/16 10:48:50;;;;;;;9.68;4.20;;;2.20;71.00;;;;;;5071879;28;20065;-83
2021/11/16 10:51:17;;;;;;;5.15;4.10;;;2.20;71.40;;;;;;5072027;28;20029;-84
2021/11/16 10:53:51;;;;;;;4.60;3.15;;;2.10;71.30;;;;;;5074011;28;20447;-83
2021/11/16 10:56:22;;;;;;;12.38;3.70;;;2.00;71.50;;;;;;5074631;28;20024;-84
2021/11/16 10:58:49;;;;;;;9.27;3.60;;;2.00;71.70;;;;;;5073467;28;20020;-83
2021/11/16 11:01:24;;;;;;;4.35;2.75;;;2.00;71.90;;;;;;5073292;28;20037;-82
2021/11/16 11:03:54;;;;;;;6.07;3.40;;;2.00;72.10;;;;;;5060366;28;20044;-84
2021/11/16 11:06:26;;;;;;;8.05;5.07;;;2.00;72.00;;;;;;5059157;28;20029;-84
2021/11/16 11:08:55;;;;;;;8.70;2.83;;;2.00;71.90;;;;;;5055658;28;20029;-85
2021/11/16 11:11:26;;;;;;;5.93;3.72;;;2.00;71.80;;;;;;5053604;28;20105;-85
2021/11/16 11:14:04;;;;;;;11.32;4.10;;;1.90;71.90;;;;;;5052250;28;20068;-84
2021/11/16 11:17:01;;;;;;;5.20;3.20;;;1.90;71.90;;;;;;5053179;28;20017;-84
2021/11/16 11:19:35;;;;;;;8.35;3.88;;;1.90;71.90;;;;;;5052117;28;20036;-82
2021/11/16 11:22:27;;;;;;;6.90;3.40;;;1.90;72.10;;;;;;5053715;28;20367;-85
2021/11/16 11:27:36;;;;;;;5.20;3.53;;;1.90;72.00;;;;;;5067685;28;20029;-85
2021/11/16 11:30:08;;;;;;;4.05;2.72;;;1.90;71.70;;;;;;5057240;28;20029;-84
2021/11/16 11:32:41;;;;;;;6.80;3.17;;;1.90;71.60;;;;;;5055079;28;20021;-85
2021/11/16 11:35:12;;;;;;;6.25;3.58;;;1.90;71.60;;;;;;5058906;28;20486;-84
2021/11/16 11:37:56;;;;;;;11.65;4.43;;;1.80;71.70;;;;;;5057501;28;20029;-84
2021/11/16 11:40:27;;;;;;;7.03;3.15;;;1.80;71.90;;;;;;5057621;28;20483;-85
2021/11/16 11:43:07;;;;;;;5.82;3.50;;;1.80;71.90;;;;;;5063235;28;20041;-84
2021/11/16 11:45:37;;;;;;;17.05;4.53;;;1.80;71.90;;;;;;5078212;28;20024;-85
2021/11/16 11:48:03;;;;;;;7.60;3.80;;;1.80;71.90;;;;;;5072951;28;20028;-85
2021/11/16 11:50:35;;;;;;;7.00;3.10;;;1.80;71.90;;;;;;5057124;28;20389;-87
2021/11/16 11:53:05;;;;;;;11.80;3.60;;;1.80;72.00;;;;;;5056782;28;20028;-84
2021/11/16 11:55:34;;;;;;;6.35;4.18;;;1.80;72.10;;;;;;5055019;28;20115;-84
2021/11/16 11:58:03;;;;;;;9.50;3.47;;;1.80;72.70;;;;;;5056356;28;20357;-84
2021/11/16 12:00:31;;;;;;;10.70;4.07;;;1.80;72.50;;;;;;5073118;28;20419;-84
2021/11/16 12:02:56;;;;;;;;;;;1.90;72.40;;;;;;5074728;28;20028;-84
2021/11/16 12:05:27;;;;;;;11.95;4.10;;;1.80;72.30;;;;;;5076065;28;19904;-85
2021/11/16 12:07:53;;;;;;;8.93;4.60;;;1.80;72.90;;;;;;5078717;28;20016;-85
2021/11/16 12:10:20;;;;;;;4.90;2.88;;;1.90;72.80;;;;;;5076389;28;20488;-84
2021/11/16 12:12:47;;;;;;;6.82;3.35;;;1.90;71.90;;;;;;5076755;28;20024;-83
2021/11/16 12:15:50;;;;;;;8.82;3.38;;;1.80;71.80;;;;;;5083412;28;20146;-85
2021/11/16 12:18:17;;;;;;;5.53;3.50;;;1.80;72.10;;;;;;5075364;28;20471;-85
2021/11/16 12:20:55;;;;;;;7.97;4.07;;;1.80;71.40;;;;;;5075229;28;20028;-84
2021/11/16 12:23:45;;;;;;;7.68;2.88;;;1.80;71.50;;;;;;5075860;28;20032;-84
2021/11/16 12:26:13;;;;;;;6.10;3.40;;;1.80;71.60;;;;;;5075986;28;20115;-83
2021/11/16 12:28:39;;;;;;;7.32;3.30;;;1.80;71.20;;;;;;5076398;28;20030;-84
2021/11/16 12:31:08;;;;;;;11.88;4.60;;;1.70;71.30;;;;;;5075933;28;20040;-85
2021/11/16 12:33:47;;;;;;;10.18;3.53;;;1.70;71.50;;;;;;5075986;28;20400;-84
2021/11/16 12:36:17;;;;;;;6.85;3.47;;;1.70;71.40;;;;;;5074547;28;20021;-84
2021/11/16 12:38:48;;;;;;;8.68;3.60;;;1.70;71.00;;;;;;5076298;28;20112;-85
2021/11/16 12:41:36;;;;;;;5.75;3.08;;;1.70;71.00;;;;;;5075648;28;20024;-85
2021/11/16 12:44:05;;;;;;;6.10;3.15;;;1.60;71.10;;;;;;5074276;28;20032;-84
2021/11/16 12:46:36;;;;;;;11.13;3.85;;;1.60;71.20;;;;;;5075688;28;20090;-84
2021/11/16 12:49:04;;;;;;;13.95;4.78;;;1.60;71.60;;;;;;5075774;28;20109;-85
2021/11/16 12:51:36;;;;;;;8.35;4.10;;;1.60;71.50;;;;;;5074578;28;20024;-84
2021/11/16 12:54:24;;;;;;;6.80;3.75;;;1.50;71.50;;;;;;5075212;28;20031;-84
2021/11/16 12:56:50;;;;;;;7.53;3.65;;;1.50;71.60;;;;;;5078583;28;20071;-84
2021/11/16 12:59:43;;;;;;;5.20;3.40;;;1.50;71.60;;;;;;5075297;28;20017;-83
2021/11/16 13:02:34;;;;;;;4.93;2.88;;;1.50;71.60;;;;;;5076482;28;20027;-84
2021/11/16 13:05:11;;;;;;;7.50;3.38;;;1.40;71.60;;;;;;5075074;28;20029;-84
2021/11/16 13:07:39;;;;;;;7.03;3.30;;;1.40;71.60;;;;;;5074990;28;20111;-86
2021/11/16 13:10:05;;;;;;;12.15;3.38;;;1.40;71.60;;;;;;5075178;28;20029;-86
2021/11/16 13:12:48;;;;;;;6.72;3.50;;;1.30;71.90;;;;;;5075003;28;20082;-84
2021/11/16 13:15:31;;;;;;;6.97;4.53;;;1.30;72.10;;;;;;5075841;28;20023;-84
2021/11/16 13:18:09;;;;;;;8.98;4.88;;;1.30;72.40;;;;;;5074830;28;20027;-87
2021/11/16 13:20:41;;;;;;;14.05;4.88;;;1.30;72.60;;;;;;5075317;28;20051;-84